Belavia B733 at Kiev on Dec 22nd 2017, runway excursion after landing

Last Update: January 16, 2018 / 15:36:12 GMT/Zulu time

Bookmark this article
Incident Facts

Date of incident
Dec 22, 2017

Classification
Incident

Airline
Belavia

Flight number
B2-843

Aircraft Registration
EW-336PA

Aircraft Type
Boeing 737-300

ICAO Type Designator
B733

Airport ICAO Code
UKBB

A Belavia Boeing 737-300, registration EW-336PA performing flight B2-843 from Minsk (Belarus) to Kiev Boryspil (Ukraine), landed safely on Kiev's runway 18L and slowed at 09:00L (07:00Z). While vacating the runway via taxiway A5 the aircraft went off the paved surfaced of the snow covered taxiway and became disabled still inside the runway protected area.

The runway needed to be temporariy closed.

The airline stressed that the aircraft did not suffer a runway excursion but suffered an incident on the taxiway.

On Jan 16th 2018 Ukraine's NBAAI reported the aircraft went off taxiway A5 while vacating runway 18L, the nose and left right main gear departed the taxiway to the left, the right main gear remained on the paved surface of the taxiway. The aircraft remained undamaged. The investigation was delegated to the authority of Belarus.

Metars:
UKBB 220900Z 24003MPS 8000 -SN OVC012 M01/M01 Q1017 R18L/551030 TEMPO 1000 -FZRA -SHSN BR SCT015CB=
UKBB 220830Z 24003MPS 210V310 3600 -SN OVC011 M01/M01 Q1017 R18L/551030 TEMPO 1000 -FZRA -SHSN BR SCT015CB=
UKBB 220800Z 24003MPS 5000 -SN SCT008 OVC011 M01/M02 Q1017 R18L/551030 TEMPO 1000 -FZRA -SHSN BR SCT015CB=
UKBB 220730Z 23004MPS 5000 -SN SCT007 OVC012 M02/M02 Q1017 RESHSN R18L/591026 TEMPO 1000 -FZRA -SHSN BR SCT015CB=
UKBB 220715Z 23004MPS 4200 -SHSN SCT007 BKN009CB M02/M02 Q1017 R18L/591026 TEMPO 1000 -FZRA -SHSN BR SCT015CB=
UKBB 220704Z 23003MPS 1300 R18L/P2000N R18R/1600VP2000N SHSN BKN006 BKN009CB M02/M02 Q1017 R18L/591026 TEMPO 1000 -FZRA -SHSN BR SCT015CB=
UKBB 220700Z 23004MPS 3500 -SN OVC007 M02/M02 Q1017 R18L/591026 TEMPO 1000 -FZRA -SHSN BR SCT015CB=
UKBB 220630Z 22003MPS 2200 -SN OVC010 M02/M02 Q1017 R18L/591030 TEMPO 1000 -FZRA -SHSN BR SCT015CB=
UKBB 220600Z 22004MPS 1100 R18L/P2000N R18R/P2000N SN OVC011 M02/M02 Q1017 R18L/591030 TEMPO 1000 -FZRA -SHSN BR SCT015CB=
UKBB 220530Z 22004MPS 4500 -SN SCT010 BKN018 M02/M03 Q1017 R18L/591026 TEMPO 1000 -FZRA -SHSN BR SCT015CB=
UKBB 220500Z 22004MPS 9000 -SN OVC012 M02/M03 Q1017 R18L/591026 TEMPO 1000 SHSN BR SCT015CB=
Incident Facts

Date of incident
Dec 22, 2017

Classification
Incident

Airline
Belavia

Flight number
B2-843

Aircraft Registration
EW-336PA

Aircraft Type
Boeing 737-300

ICAO Type Designator
B733

Airport ICAO Code
UKBB

This article is published under license from Avherald.com. © of text by Avherald.com.
Article source

You can read 4 more free articles without a subscription.

Subscribe now and continue reading without any limits!

Are you a subscriber?
Login
Subscribe

Read unlimited articles and receive our daily update briefing. Gain better insights into what is happening in commercial aviation safety.

Free newsletter

Want to know more and stay ahead? Get our free weekly newsletter and join 5233 existing subscribers.

By subscribing, you accept our terms and conditions and confirm that you've read our privacy policy.

Send tip

Support AeroInside by sending a small tip amount.

Related articles

Newest articles

Subscribe today

Are you researching aviation incidents? Get access to AeroInside Insights, unlimited read access and receive the daily newsletter.

Pick your plan and subscribe

Partner

Blockaviation logo

A new way to document and demonstrate airworthiness compliance and aircraft value. Find out more.

Virtual Speech logo

ELITE Simulation Solutions is a leading global provider of Flight Simulation Training Devices, IFR training software as well as flight controls and related services. Find out more.

Get updates

Never miss an article from AeroInside. Subscribe to our free weekly newsletter and join 5233 existing subscribers.

By subscribing, you accept our terms and conditions and that you've read our privacy policy.

AeroInside Blog
Popular aircraft
Airbus A320
Boeing 737-800
Boeing 737-800 MAX
Popular airlines
American Airlines
United
Delta
Air Canada
Lufthansa
British Airways